sensor_id;sensor_type;location;lat;lon;timestamp;temperature;humidity
66831;DHT22;53739;44.224;22.528;2022-11-04T00:01:49;256.00;2252.80
66831;DHT22;53739;44.224;22.528;2022-11-04T00:04:16;256.00;2252.80
66831;DHT22;53739;44.224;22.528;2022-11-04T00:06:43;231.30;2252.80
66831;DHT22;53739;44.224;22.528;2022-11-04T00:09:20;231.30;2252.80
66831;DHT22;53739;44.224;22.528;2022-11-04T00:11:47;231.30;2252.80
66831;DHT22;53739;44.224;22.528;2022-11-04T00:14:32;231.30;2252.80
66831;DHT22;53739;44.224;22.528;2022-11-04T00:16:58;231.20;2252.80
66831;DHT22;53739;44.224;22.528;2022-11-04T00:19:44;231.20;2252.80
66831;DHT22;53739;44.224;22.528;2022-11-04T00:22:28;231.10;2252.80
66831;DHT22;53739;44.224;22.528;2022-11-04T00:25:12;231.20;2252.80
66831;DHT22;53739;44.224;22.528;2022-11-04T00:28:09;231.30;2252.80
66831;DHT22;53739;44.224;22.528;2022-11-04T00:30:55;231.20;2252.80
66831;DHT22;53739;44.224;22.528;2022-11-04T00:33:21;231.10;2252.80
66831;DHT22;53739;44.224;22.528;2022-11-04T00:35:52;231.10;2252.80
66831;DHT22;53739;44.224;22.528;2022-11-04T00:38:18;231.10;2252.80
66831;DHT22;53739;44.224;22.528;2022-11-04T00:40:44;230.90;2252.80
66831;DHT22;53739;44.224;22.528;2022-11-04T00:43:10;230.90;2252.80
66831;DHT22;53739;44.224;22.528;2022-11-04T00:45:38;230.70;2252.80
66831;DHT22;53739;44.224;22.528;2022-11-04T00:48:04;230.80;2252.80
66831;DHT22;53739;44.224;22.528;2022-11-04T00:50:30;230.80;2252.80
66831;DHT22;53739;44.224;22.528;2022-11-04T00:53:03;230.80;2252.80
66831;DHT22;53739;44.224;22.528;2022-11-04T00:55:29;230.90;2252.80
66831;DHT22;53739;44.224;22.528;2022-11-04T00:57:55;230.90;2252.80
66831;DHT22;53739;44.224;22.528;2022-11-04T01:00:22;230.90;2252.80
66831;DHT22;53739;44.224;22.528;2022-11-04T01:02:48;230.90;2252.80
66831;DHT22;53739;44.224;22.528;2022-11-04T01:05:14;230.90;2252.80
66831;DHT22;53739;44.224;22.528;2022-11-04T01:07:40;230.90;2252.80
66831;DHT22;53739;44.224;22.528;2022-11-04T01:10:06;230.90;2252.80
66831;DHT22;53739;44.224;22.528;2022-11-04T01:12:32;230.90;2252.80
66831;DHT22;53739;44.224;22.528;2022-11-04T01:14:59;231.00;2252.80
66831;DHT22;53739;44.224;22.528;2022-11-04T01:17:25;230.90;2252.80
66831;DHT22;53739;44.224;22.528;2022-11-04T01:19:51;230.90;2252.80
66831;DHT22;53739;44.224;22.528;2022-11-04T01:22:17;230.90;2252.80
66831;DHT22;53739;44.224;22.528;2022-11-04T01:24:43;230.90;2252.80
66831;DHT22;53739;44.224;22.528;2022-11-04T01:27:09;230.90;2252.80
66831;DHT22;53739;44.224;22.528;2022-11-04T01:29:35;231.00;2252.80
66831;DHT22;53739;44.224;22.528;2022-11-04T01:32:00;231.00;2252.80
66831;DHT22;53739;44.224;22.528;2022-11-04T01:34:26;231.00;2252.80
66831;DHT22;53739;44.224;22.528;2022-11-04T01:36:52;231.00;2252.80
66831;DHT22;53739;44.224;22.528;2022-11-04T01:39:18;230.90;2252.80
66831;DHT22;53739;44.224;22.528;2022-11-04T01:41:44;230.90;2252.80
66831;DHT22;53739;44.224;22.528;2022-11-04T01:49:49;230.80;2252.80
66831;DHT22;53739;44.224;22.528;2022-11-04T01:52:25;230.80;2252.80
66831;DHT22;53739;44.224;22.528;2022-11-04T01:54:55;230.80;2252.80
66831;DHT22;53739;44.224;22.528;2022-11-04T01:57:30;230.80;2252.80
66831;DHT22;53739;44.224;22.528;2022-11-04T02:00:01;230.80;2252.80
66831;DHT22;53739;44.224;22.528;2022-11-04T02:02:28;230.70;2252.80
66831;DHT22;53739;44.224;22.528;2022-11-04T02:04:55;230.80;2252.80
66831;DHT22;53739;44.224;22.528;2022-11-04T02:07:21;230.70;2252.80
66831;DHT22;53739;44.224;22.528;2022-11-04T02:09:48;230.80;2252.80
66831;DHT22;53739;44.224;22.528;2022-11-04T02:12:14;230.80;2252.80
66831;DHT22;53739;44.224;22.528;2022-11-04T02:14:58;230.80;2252.80
66831;DHT22;53739;44.224;22.528;2022-11-04T02:17:29;230.70;2252.80
66831;DHT22;53739;44.224;22.528;2022-11-04T02:23:01;230.60;2252.80
66831;DHT22;53739;44.224;22.528;2022-11-04T02:28:41;230.70;2252.80
66831;DHT22;53739;44.224;22.528;2022-11-04T02:34:09;205.60;2252.80
66831;DHT22;53739;44.224;22.528;2022-11-04T02:42:03;205.70;2252.80
66831;DHT22;53739;44.224;22.528;2022-11-04T02:44:44;205.70;2252.80
66831;DHT22;53739;44.224;22.528;2022-11-04T02:47:19;230.40;2252.80
66831;DHT22;53739;44.224;22.528;2022-11-04T02:53:06;205.40;2252.80
66831;DHT22;53739;44.224;22.528;2022-11-04T02:55:39;205.50;2252.80
66831;DHT22;53739;44.224;22.528;2022-11-04T02:58:10;205.60;2252.80
66831;DHT22;53739;44.224;22.528;2022-11-04T03:00:38;205.60;2252.80
66831;DHT22;53739;44.224;22.528;2022-11-04T03:03:12;205.70;2252.80
66831;DHT22;53739;44.224;22.528;2022-11-04T03:05:44;205.70;2252.80
66831;DHT22;53739;44.224;22.528;2022-11-04T03:08:20;205.70;2252.80
66831;DHT22;53739;44.224;22.528;2022-11-04T03:10:55;205.60;2252.80
66831;DHT22;53739;44.224;22.528;2022-11-04T03:13:28;205.70;2252.80
66831;DHT22;53739;44.224;22.528;2022-11-04T03:16:00;205.60;2252.80
66831;DHT22;53739;44.224;22.528;2022-11-04T03:21:08;205.60;2252.80
66831;DHT22;53739;44.224;22.528;2022-11-04T03:23:36;205.70;2252.80
66831;DHT22;53739;44.224;22.528;2022-11-04T03:26:27;205.60;2252.80
66831;DHT22;53739;44.224;22.528;2022-11-04T03:29:08;230.40;2252.80
66831;DHT22;53739;44.224;22.528;2022-11-04T03:34:24;205.70;2252.80
66831;DHT22;53739;44.224;22.528;2022-11-04T03:36:49;205.70;2252.80
66831;DHT22;53739;44.224;22.528;2022-11-04T03:39:15;205.70;2252.80
66831;DHT22;53739;44.224;22.528;2022-11-04T03:41:55;230.40;2252.80
66831;DHT22;53739;44.224;22.528;2022-11-04T03:44:22;230.40;2252.80
66831;DHT22;53739;44.224;22.528;2022-11-04T03:46:49;205.60;2252.80
66831;DHT22;53739;44.224;22.528;2022-11-04T03:49:15;205.70;2252.80
66831;DHT22;53739;44.224;22.528;2022-11-04T03:51:41;205.60;2252.80
66831;DHT22;53739;44.224;22.528;2022-11-04T03:54:07;205.50;2252.80
66831;DHT22;53739;44.224;22.528;2022-11-04T03:59:22;205.40;2252.80
66831;DHT22;53739;44.224;22.528;2022-11-04T04:01:56;205.30;2252.80
66831;DHT22;53739;44.224;22.528;2022-11-04T04:04:34;205.40;2252.80
66831;DHT22;53739;44.224;22.528;2022-11-04T04:07:30;205.30;2252.80
66831;DHT22;53739;44.224;22.528;2022-11-04T04:10:06;205.30;2252.80
66831;DHT22;53739;44.224;22.528;2022-11-04T04:12:58;205.30;2252.80
66831;DHT22;53739;44.224;22.528;2022-11-04T04:15:30;205.30;2252.80
66831;DHT22;53739;44.224;22.528;2022-11-04T04:18:02;205.20;2252.80
66831;DHT22;53739;44.224;22.528;2022-11-04T04:20:31;205.30;2252.80
66831;DHT22;53739;44.224;22.528;2022-11-04T04:23:38;205.30;2252.80
66831;DHT22;53739;44.224;22.528;2022-11-04T04:26:16;205.20;2252.80
66831;DHT22;53739;44.224;22.528;2022-11-04T04:29:03;205.00;2252.80
66831;DHT22;53739;44.224;22.528;2022-11-04T04:31:33;204.80;2252.80
66831;DHT22;53739;44.224;22.528;2022-11-04T04:34:24;204.90;2252.80
66831;DHT22;53739;44.224;22.528;2022-11-04T04:39:22;179.80;2252.80
66831;DHT22;53739;44.224;22.528;2022-11-04T04:42:08;179.70;2252.80
66831;DHT22;53739;44.224;22.528;2022-11-04T04:44:54;179.80;2252.80
66831;DHT22;53739;44.224;22.528;2022-11-04T04:47:38;180.00;2252.80
66831;DHT22;53739;44.224;22.528;2022-11-04T04:50:05;179.90;2252.80
66831;DHT22;53739;44.224;22.528;2022-11-04T04:52:40;180.00;2252.80
66831;DHT22;53739;44.224;22.528;2022-11-04T04:55:07;180.10;2252.80
66831;DHT22;53739;44.224;22.528;2022-11-04T04:57:34;179.90;2252.80
66831;DHT22;53739;44.224;22.528;2022-11-04T05:00:00;180.00;2252.80
66831;DHT22;53739;44.224;22.528;2022-11-04T05:02:26;180.00;2252.80
66831;DHT22;53739;44.224;22.528;2022-11-04T05:04:52;180.10;2252.80
66831;DHT22;53739;44.224;22.528;2022-11-04T05:07:18;180.10;2252.80
66831;DHT22;53739;44.224;22.528;2022-11-04T05:09:44;180.10;2252.80
66831;DHT22;53739;44.224;22.528;2022-11-04T05:12:10;180.10;2252.80
66831;DHT22;53739;44.224;22.528;2022-11-04T05:14:35;180.10;2252.80
66831;DHT22;53739;44.224;22.528;2022-11-04T05:17:01;180.10;2252.80
66831;DHT22;53739;44.224;22.528;2022-11-04T05:19:28;180.10;2252.80
66831;DHT22;53739;44.224;22.528;2022-11-04T05:21:54;180.10;2252.80
66831;DHT22;53739;44.224;22.528;2022-11-04T05:24:20;180.10;2252.80
66831;DHT22;53739;44.224;22.528;2022-11-04T05:26:48;180.10;2252.80
66831;DHT22;53739;44.224;22.528;2022-11-04T05:29:14;204.80;2252.80
66831;DHT22;53739;44.224;22.528;2022-11-04T05:31:40;204.80;2252.80
66831;DHT22;53739;44.224;22.528;2022-11-04T05:34:09;204.80;2252.80
66831;DHT22;53739;44.224;22.528;2022-11-04T05:36:35;204.80;2252.80
66831;DHT22;53739;44.224;22.528;2022-11-04T05:39:02;204.80;2252.80
66831;DHT22;53739;44.224;22.528;2022-11-04T05:41:28;180.10;2252.80
66831;DHT22;53739;44.224;22.528;2022-11-04T05:43:58;204.80;2252.80
66831;DHT22;53739;44.224;22.528;2022-11-04T05:46:25;204.90;2252.80
66831;DHT22;53739;44.224;22.528;2022-11-04T05:48:51;205.10;2252.80
66831;DHT22;53739;44.224;22.528;2022-11-04T05:51:20;205.00;2252.80
66831;DHT22;53739;44.224;22.528;2022-11-04T05:53:46;205.10;2252.80
66831;DHT22;53739;44.224;22.528;2022-11-04T05:56:13;205.10;2252.80
66831;DHT22;53739;44.224;22.528;2022-11-04T05:58:39;205.20;2252.80
66831;DHT22;53739;44.224;22.528;2022-11-04T06:01:23;205.30;2252.80
66831;DHT22;53739;44.224;22.528;2022-11-04T06:03:50;205.40;2252.80
66831;DHT22;53739;44.224;22.528;2022-11-04T06:06:16;205.40;2252.80
66831;DHT22;53739;44.224;22.528;2022-11-04T06:08:42;205.40;2252.80
66831;DHT22;53739;44.224;22.528;2022-11-04T06:11:08;205.50;2252.80
66831;DHT22;53739;44.224;22.528;2022-11-04T06:13:34;205.70;2252.80
66831;DHT22;53739;44.224;22.528;2022-11-04T06:16:00;205.60;2252.80
66831;DHT22;53739;44.224;22.528;2022-11-04T06:18:26;205.60;2252.80
66831;DHT22;53739;44.224;22.528;2022-11-04T06:23:43;205.50;2252.80
66831;DHT22;53739;44.224;22.528;2022-11-04T06:26:10;205.70;2252.80
66831;DHT22;53739;44.224;22.528;2022-11-04T06:28:38;205.70;2252.80
66831;DHT22;53739;44.224;22.528;2022-11-04T06:31:11;205.70;2252.80
66831;DHT22;53739;44.224;22.528;2022-11-04T06:33:38;205.70;2252.80
66831;DHT22;53739;44.224;22.528;2022-11-04T06:36:06;205.70;2252.80
66831;DHT22;53739;44.224;22.528;2022-11-04T06:38:34;230.50;2252.80
66831;DHT22;53739;44.224;22.528;2022-11-04T06:41:01;230.60;2252.80
66831;DHT22;53739;44.224;22.528;2022-11-04T06:43:27;230.70;2252.80
66831;DHT22;53739;44.224;22.528;2022-11-04T06:45:56;230.80;2252.80
66831;DHT22;53739;44.224;22.528;2022-11-04T06:48:23;231.00;2252.80
66831;DHT22;53739;44.224;22.528;2022-11-04T06:50:49;231.30;2252.80
66831;DHT22;53739;44.224;22.528;2022-11-04T06:53:23;256.10;2252.80
66831;DHT22;53739;44.224;22.528;2022-11-04T06:55:50;256.30;2252.80
66831;DHT22;53739;44.224;22.528;2022-11-04T06:58:17;256.70;2252.80
66831;DHT22;53739;44.224;22.528;2022-11-04T07:00:51;256.90;2252.80
66831;DHT22;53739;44.224;22.528;2022-11-04T07:03:22;281.70;2278.40
66831;DHT22;53739;44.224;22.528;2022-11-04T07:05:48;282.00;2278.40
66831;DHT22;53739;44.224;22.528;2022-11-04T07:08:14;282.20;2278.40
66831;DHT22;53739;44.224;22.528;2022-11-04T07:10:40;282.40;2278.40
66831;DHT22;53739;44.224;22.528;2022-11-04T07:13:06;307.40;2304.00
66831;DHT22;53739;44.224;22.528;2022-11-04T07:15:32;307.70;2304.00
66831;DHT22;53739;44.224;22.528;2022-11-04T07:17:58;307.90;2304.00
66831;DHT22;53739;44.224;22.528;2022-11-04T07:20:24;332.80;2329.60
66831;DHT22;53739;44.224;22.528;2022-11-04T07:22:53;333.10;2329.60
66831;DHT22;53739;44.224;22.528;2022-11-04T07:25:19;333.40;2329.60
66831;DHT22;53739;44.224;22.528;2022-11-04T07:27:45;333.70;2329.60
66831;DHT22;53739;44.224;22.528;2022-11-04T07:30:13;358.40;2329.60
66831;DHT22;53739;44.224;22.528;2022-11-04T07:32:39;358.50;2329.60
66831;DHT22;53739;44.224;22.528;2022-11-04T07:35:05;358.60;2329.60
66831;DHT22;53739;44.224;22.528;2022-11-04T07:37:32;358.70;2329.60
66831;DHT22;53739;44.224;22.528;2022-11-04T07:39:57;358.90;2329.60
66831;DHT22;53739;44.224;22.528;2022-11-04T07:42:23;359.00;2304.00
66831;DHT22;53739;44.224;22.528;2022-11-04T07:44:49;359.00;2329.60
66831;DHT22;53739;44.224;22.528;2022-11-04T07:47:17;358.90;2329.60
66831;DHT22;53739;44.224;22.528;2022-11-04T07:49:42;358.90;2304.00
66831;DHT22;53739;44.224;22.528;2022-11-04T07:52:09;358.80;2329.60
66831;DHT22;53739;44.224;22.528;2022-11-04T07:54:34;358.80;2329.60
66831;DHT22;53739;44.224;22.528;2022-11-04T07:57:00;358.80;2329.60
66831;DHT22;53739;44.224;22.528;2022-11-04T07:59:26;358.80;2329.60
66831;DHT22;53739;44.224;22.528;2022-11-04T08:01:52;358.70;2329.60
66831;DHT22;53739;44.224;22.528;2022-11-04T08:04:18;359.10;2329.60
66831;DHT22;53739;44.224;22.528;2022-11-04T08:06:44;359.00;2329.60
66831;DHT22;53739;44.224;22.528;2022-11-04T08:09:10;359.00;2329.60
66831;DHT22;53739;44.224;22.528;2022-11-04T08:11:36;359.00;2329.60
66831;DHT22;53739;44.224;22.528;2022-11-04T08:14:02;359.20;2304.00
66831;DHT22;53739;44.224;22.528;2022-11-04T08:16:29;359.10;2329.60
66831;DHT22;53739;44.224;22.528;2022-11-04T08:18:55;359.10;2329.60
66831;DHT22;53739;44.224;22.528;2022-11-04T08:21:27;359.20;2329.60
66831;DHT22;53739;44.224;22.528;2022-11-04T08:23:54;359.20;2304.00
66831;DHT22;53739;44.224;22.528;2022-11-04T08:26:21;359.00;2329.60
66831;DHT22;53739;44.224;22.528;2022-11-04T08:28:49;359.30;2329.60
66831;DHT22;53739;44.224;22.528;2022-11-04T08:31:25;384.30;2329.60
66831;DHT22;53739;44.224;22.528;2022-11-04T08:33:53;384.70;2329.60
66831;DHT22;53739;44.224;22.528;2022-11-04T08:36:22;384.90;2048.00
66831;DHT22;53739;44.224;22.528;2022-11-04T08:38:48;409.80;1996.80
66831;DHT22;53739;44.224;22.528;2022-11-04T08:41:16;410.20;1920.00
66831;DHT22;53739;44.224;22.528;2022-11-04T08:43:44;410.50;1766.40
66831;DHT22;53739;44.224;22.528;2022-11-04T08:46:10;435.50;1817.60
66831;DHT22;53739;44.224;22.528;2022-11-04T08:48:37;436.00;1638.40
66831;DHT22;53739;44.224;22.528;2022-11-04T08:51:09;460.90;1561.60
66831;DHT22;53739;44.224;22.528;2022-11-04T08:53:37;461.10;1382.40
66831;DHT22;53739;44.224;22.528;2022-11-04T08:56:20;461.10;1356.80
66831;DHT22;53739;44.224;22.528;2022-11-04T08:58:47;461.20;1356.80
66831;DHT22;53739;44.224;22.528;2022-11-04T09:01:13;461.10;1305.60
66831;DHT22;53739;44.224;22.528;2022-11-04T09:03:40;461.10;1356.80
66831;DHT22;53739;44.224;22.528;2022-11-04T09:06:08;461.00;1356.80
66831;DHT22;53739;44.224;22.528;2022-11-04T09:08:35;461.30;1356.80
66831;DHT22;53739;44.224;22.528;2022-11-04T09:11:06;461.30;1254.40
66831;DHT22;53739;44.224;22.528;2022-11-04T09:13:32;461.30;1228.80
66831;DHT22;53739;44.224;22.528;2022-11-04T09:15:58;461.20;1331.20
66831;DHT22;53739;44.224;22.528;2022-11-04T09:18:24;460.90;1254.40
66831;DHT22;53739;44.224;22.528;2022-11-04T09:20:50;460.90;1305.60
66831;DHT22;53739;44.224;22.528;2022-11-04T09:23:16;460.80;1305.60
66831;DHT22;53739;44.224;22.528;2022-11-04T09:25:42;461.00;1228.80
66831;DHT22;53739;44.224;22.528;2022-11-04T09:28:13;461.30;1331.20
66831;DHT22;53739;44.224;22.528;2022-11-04T09:30:39;461.70;1203.20
66831;DHT22;53739;44.224;22.528;2022-11-04T09:33:13;486.40;1049.60
66831;DHT22;53739;44.224;22.528;2022-11-04T09:36:12;486.50;1100.80
66831;DHT22;53739;44.224;22.528;2022-11-04T09:38:47;461.10;1100.80
66831;DHT22;53739;44.224;22.528;2022-11-04T09:41:37;461.00;1152.00
66831;DHT22;53739;44.224;22.528;2022-11-04T09:47:07;461.50;1228.80
66831;DHT22;53739;44.224;22.528;2022-11-04T09:49:36;461.70;1075.20
66831;DHT22;53739;44.224;22.528;2022-11-04T09:52:36;486.40;1100.80
66831;DHT22;53739;44.224;22.528;2022-11-04T09:57:55;486.60;1177.60
66831;DHT22;53739;44.224;22.528;2022-11-04T10:00:22;486.70;1049.60
66831;DHT22;53739;44.224;22.528;2022-11-04T10:03:22;486.70;1049.60
66831;DHT22;53739;44.224;22.528;2022-11-04T10:11:23;487.10;921.60
66831;DHT22;53739;44.224;22.528;2022-11-04T10:17:18;512.20;896.00
66831;DHT22;53739;44.224;22.528;2022-11-04T10:20:18;512.00;793.60
66831;DHT22;53739;44.224;22.528;2022-11-04T10:25:15;487.30;998.40
66831;DHT22;53739;44.224;22.528;2022-11-04T10:27:46;512.00;819.20
66831;DHT22;53739;44.224;22.528;2022-11-04T10:30:21;487.30;793.60
66831;DHT22;53739;44.224;22.528;2022-11-04T10:33:09;487.00;896.00
66831;DHT22;53739;44.224;22.528;2022-11-04T10:36:01;487.00;896.00
66831;DHT22;53739;44.224;22.528;2022-11-04T10:38:56;486.80;896.00
66831;DHT22;53739;44.224;22.528;2022-11-04T10:51:56;486.90;921.60
66831;DHT22;53739;44.224;22.528;2022-11-04T10:54:39;487.10;921.60
66831;DHT22;53739;44.224;22.528;2022-11-04T10:57:05;487.30;844.80
66831;DHT22;53739;44.224;22.528;2022-11-04T10:59:56;487.30;819.20
66831;DHT22;53739;44.224;22.528;2022-11-04T11:02:43;487.30;819.20
66831;DHT22;53739;44.224;22.528;2022-11-04T11:07:49;512.20;793.60
66831;DHT22;53739;44.224;22.528;2022-11-04T11:10:20;512.10;742.40
66831;DHT22;53739;44.224;22.528;2022-11-04T11:12:59;512.20;819.20
66831;DHT22;53739;44.224;22.528;2022-11-04T11:15:37;512.70;742.40
66831;DHT22;53739;44.224;22.528;2022-11-04T11:18:17;512.90;691.20
66831;DHT22;53739;44.224;22.528;2022-11-04T11:21:06;512.90;691.20
66831;DHT22;53739;44.224;22.528;2022-11-04T11:23:42;512.60;691.20
66831;DHT22;53739;44.224;22.528;2022-11-04T11:26:15;487.20;691.20
66831;DHT22;53739;44.224;22.528;2022-11-04T11:28:48;487.20;819.20
66831;DHT22;53739;44.224;22.528;2022-11-04T11:31:15;487.10;819.20
66831;DHT22;53739;44.224;22.528;2022-11-04T11:34:13;487.10;793.60
66831;DHT22;53739;44.224;22.528;2022-11-04T11:36:41;486.90;793.60
66831;DHT22;53739;44.224;22.528;2022-11-04T11:44:34;486.70;844.80
66831;DHT22;53739;44.224;22.528;2022-11-04T11:47:17;486.60;870.40
66831;DHT22;53739;44.224;22.528;2022-11-04T11:50:08;486.50;998.40
66831;DHT22;53739;44.224;22.528;2022-11-04T11:52:40;486.40;896.00
66831;DHT22;53739;44.224;22.528;2022-11-04T11:58:13;486.40;921.60
66831;DHT22;53739;44.224;22.528;2022-11-04T12:01:09;461.70;947.20
66831;DHT22;53739;44.224;22.528;2022-11-04T12:03:44;461.60;972.80
66831;DHT22;53739;44.224;22.528;2022-11-04T12:28:28;436.10;1075.20
66831;DHT22;53739;44.224;22.528;2022-11-04T12:31:13;460.80;1126.40
66831;DHT22;53739;44.224;22.528;2022-11-04T12:48:08;436.10;1100.80
66831;DHT22;53739;44.224;22.528;2022-11-04T12:56:16;460.80;1100.80
66831;DHT22;53739;44.224;22.528;2022-11-04T13:01:37;436.10;1126.40
66831;DHT22;53739;44.224;22.528;2022-11-04T13:04:17;436.10;1126.40
66831;DHT22;53739;44.224;22.528;2022-11-04T13:06:52;436.10;1126.40
66831;DHT22;53739;44.224;22.528;2022-11-04T13:09:44;460.80;1177.60
66831;DHT22;53739;44.224;22.528;2022-11-04T13:12:19;460.80;1177.60
66831;DHT22;53739;44.224;22.528;2022-11-04T13:14:58;460.90;1126.40
66831;DHT22;53739;44.224;22.528;2022-11-04T13:17:29;460.80;1152.00
66831;DHT22;53739;44.224;22.528;2022-11-04T13:20:05;460.90;1126.40
66831;DHT22;53739;44.224;22.528;2022-11-04T13:22:44;460.90;1126.40
66831;DHT22;53739;44.224;22.528;2022-11-04T13:25:16;460.90;1126.40
66831;DHT22;53739;44.224;22.528;2022-11-04T13:27:46;460.90;1126.40
66831;DHT22;53739;44.224;22.528;2022-11-04T13:30:34;460.80;1126.40
66831;DHT22;53739;44.224;22.528;2022-11-04T13:38:31;460.80;1152.00
66831;DHT22;53739;44.224;22.528;2022-11-04T13:46:53;460.80;1203.20
66831;DHT22;53739;44.224;22.528;2022-11-04T13:49:33;436.10;1152.00
66831;DHT22;53739;44.224;22.528;2022-11-04T13:52:08;436.10;1152.00
66831;DHT22;53739;44.224;22.528;2022-11-04T13:54:52;436.10;1177.60
66831;DHT22;53739;44.224;22.528;2022-11-04T13:57:23;436.00;1203.20
66831;DHT22;53739;44.224;22.528;2022-11-04T14:02:54;436.00;1177.60
66831;DHT22;53739;44.224;22.528;2022-11-04T14:18:50;436.00;1177.60
66831;DHT22;53739;44.224;22.528;2022-11-04T14:21:24;435.80;1228.80
66831;DHT22;53739;44.224;22.528;2022-11-04T14:23:56;435.70;1203.20
66831;DHT22;53739;44.224;22.528;2022-11-04T14:26:39;435.60;1228.80
66831;DHT22;53739;44.224;22.528;2022-11-04T14:29:12;435.60;1254.40
66831;DHT22;53739;44.224;22.528;2022-11-04T14:31:43;435.50;1305.60
66831;DHT22;53739;44.224;22.528;2022-11-04T14:34:31;435.50;1331.20
66831;DHT22;53739;44.224;22.528;2022-11-04T14:37:18;435.60;1280.00
66831;DHT22;53739;44.224;22.528;2022-11-04T14:39:44;435.50;1305.60
66831;DHT22;53739;44.224;22.528;2022-11-04T14:42:49;435.50;1356.80
66831;DHT22;53739;44.224;22.528;2022-11-04T14:45:17;435.50;1331.20
66831;DHT22;53739;44.224;22.528;2022-11-04T14:47:47;435.50;1305.60
66831;DHT22;53739;44.224;22.528;2022-11-04T14:50:23;435.30;1356.80
66831;DHT22;53739;44.224;22.528;2022-11-04T14:55:30;435.20;1382.40
66831;DHT22;53739;44.224;22.528;2022-11-04T14:58:12;435.20;1382.40
66831;DHT22;53739;44.224;22.528;2022-11-04T15:03:24;410.40;1433.60
66831;DHT22;53739;44.224;22.528;2022-11-04T15:05:51;410.30;1459.20
66831;DHT22;53739;44.224;22.528;2022-11-04T15:11:21;410.10;1484.80
66831;DHT22;53739;44.224;22.528;2022-11-04T15:14:24;410.00;1484.80
66831;DHT22;53739;44.224;22.528;2022-11-04T15:16:55;409.90;1484.80
66831;DHT22;53739;44.224;22.528;2022-11-04T15:19:30;409.90;1484.80
66831;DHT22;53739;44.224;22.528;2022-11-04T15:22:01;409.70;1484.80
66831;DHT22;53739;44.224;22.528;2022-11-04T15:24:27;384.90;1510.40
66831;DHT22;53739;44.224;22.528;2022-11-04T15:27:03;384.90;1536.00
66831;DHT22;53739;44.224;22.528;2022-11-04T15:29:29;384.90;1536.00
66831;DHT22;53739;44.224;22.528;2022-11-04T15:32:01;384.70;1536.00
66831;DHT22;53739;44.224;22.528;2022-11-04T15:34:30;384.70;1561.60
66831;DHT22;53739;44.224;22.528;2022-11-04T15:36:59;384.60;1561.60
66831;DHT22;53739;44.224;22.528;2022-11-04T15:39:35;384.60;1587.20
66831;DHT22;53739;44.224;22.528;2022-11-04T15:42:05;384.40;1536.00
66831;DHT22;53739;44.224;22.528;2022-11-04T15:44:54;384.30;1587.20
66831;DHT22;53739;44.224;22.528;2022-11-04T15:47:29;384.00;1766.40
66831;DHT22;53739;44.224;22.528;2022-11-04T15:50:22;359.30;1766.40
66831;DHT22;53739;44.224;22.528;2022-11-04T15:52:52;359.20;1766.40
66831;DHT22;53739;44.224;22.528;2022-11-04T15:55:24;359.20;1740.80
66831;DHT22;53739;44.224;22.528;2022-11-04T15:57:51;359.20;1740.80
66831;DHT22;53739;44.224;22.528;2022-11-04T16:00:23;359.20;1715.20
66831;DHT22;53739;44.224;22.528;2022-11-04T16:02:54;359.20;1740.80
66831;DHT22;53739;44.224;22.528;2022-11-04T16:05:30;359.10;1740.80
66831;DHT22;53739;44.224;22.528;2022-11-04T16:08:19;359.00;1715.20
66831;DHT22;53739;44.224;22.528;2022-11-04T16:10:48;358.90;1868.80
66831;DHT22;53739;44.224;22.528;2022-11-04T16:20:58;358.80;1792.00
66831;DHT22;53739;44.224;22.528;2022-11-04T16:23:25;358.80;1868.80
66831;DHT22;53739;44.224;22.528;2022-11-04T16:26:10;358.70;1920.00
66831;DHT22;53739;44.224;22.528;2022-11-04T16:28:38;358.70;1894.40
66831;DHT22;53739;44.224;22.528;2022-11-04T16:33:51;358.60;1894.40
66831;DHT22;53739;44.224;22.528;2022-11-04T16:36:16;358.60;1920.00
66831;DHT22;53739;44.224;22.528;2022-11-04T16:38:56;358.60;1945.60
66831;DHT22;53739;44.224;22.528;2022-11-04T16:41:24;358.60;1996.80
66831;DHT22;53739;44.224;22.528;2022-11-04T16:43:50;358.50;1945.60
66831;DHT22;53739;44.224;22.528;2022-11-04T16:46:17;358.40;2099.20
66831;DHT22;53739;44.224;22.528;2022-11-04T16:48:43;358.40;2150.40
66831;DHT22;53739;44.224;22.528;2022-11-04T16:51:17;358.40;2099.20
66831;DHT22;53739;44.224;22.528;2022-11-04T16:53:48;358.40;2099.20
66831;DHT22;53739;44.224;22.528;2022-11-04T16:56:18;333.70;2304.00
66831;DHT22;53739;44.224;22.528;2022-11-04T16:58:45;333.60;2278.40
66831;DHT22;53739;44.224;22.528;2022-11-04T17:01:12;333.70;2227.20
66831;DHT22;53739;44.224;22.528;2022-11-04T17:03:38;333.60;2329.60
66831;DHT22;53739;44.224;22.528;2022-11-04T17:06:05;333.40;2329.60
66831;DHT22;53739;44.224;22.528;2022-11-04T17:08:31;333.40;2329.60
66831;DHT22;53739;44.224;22.528;2022-11-04T17:10:57;333.40;2329.60
66831;DHT22;53739;44.224;22.528;2022-11-04T17:13:23;333.40;2329.60
66831;DHT22;53739;44.224;22.528;2022-11-04T17:15:49;333.50;2329.60
66831;DHT22;53739;44.224;22.528;2022-11-04T17:18:16;333.50;2329.60
66831;DHT22;53739;44.224;22.528;2022-11-04T17:20:43;333.60;2329.60
66831;DHT22;53739;44.224;22.528;2022-11-04T17:23:13;333.50;2329.60
66831;DHT22;53739;44.224;22.528;2022-11-04T17:25:40;333.50;2329.60
66831;DHT22;53739;44.224;22.528;2022-11-04T17:28:06;333.40;2329.60
66831;DHT22;53739;44.224;22.528;2022-11-04T17:30:32;333.30;2329.60
66831;DHT22;53739;44.224;22.528;2022-11-04T17:32:57;333.30;2329.60
66831;DHT22;53739;44.224;22.528;2022-11-04T17:35:24;333.40;2329.60
66831;DHT22;53739;44.224;22.528;2022-11-04T17:37:51;333.60;2329.60
66831;DHT22;53739;44.224;22.528;2022-11-04T17:40:19;333.60;2329.60
66831;DHT22;53739;44.224;22.528;2022-11-04T17:42:45;333.70;2329.60
66831;DHT22;53739;44.224;22.528;2022-11-04T17:45:30;333.70;2329.60
66831;DHT22;53739;44.224;22.528;2022-11-04T17:47:56;333.70;2329.60
66831;DHT22;53739;44.224;22.528;2022-11-04T17:50:22;333.70;2329.60